Time;durP1;ratioP1;P1;durP2;ratioP2;P2;SDS_P1;SDS_P2;PMS_P1;PMS_P2;Temp;Humidity;BMP_temperature;BMP_pressure;BME280_temperature;BME280_humidity;BME280_pressure;Samples;Min_cycle;Max_cycle;Signal;HPM_P1;HPM_P2
2022/02/01 00:00:16;;;;;;;2.45;0.30;;;;;;;;;;6290720;28;20079;-62
2022/02/01 00:03:17;;;;;;;3.10;0.40;;;;;;;;;;6308865;28;20488;-63
2022/02/01 00:06:26;;;;;;;2.80;0.20;;;;;;;;;;6311857;28;20174;-62
2022/02/01 00:09:35;;;;;;;1.13;0.30;;;;;;;;;;6312823;28;20125;-62
2022/02/01 00:12:46;;;;;;;0.80;0.50;;;;;;;;;;6308416;28;20607;-62
2022/02/01 00:19:40;;;;;;;2.38;0.55;;;;;;;;;;6231421;28;20102;-62
2022/02/01 00:36:03;;;;;;;1.25;0.60;;;;;;;;;;6306848;28;20518;-62
2022/02/01 00:39:09;;;;;;;1.13;0.60;;;;;;;;;;6298502;28;20051;-62
2022/02/01 00:42:11;;;;;;;2.15;0.85;;;;;;;;;;6306457;28;20129;-62
2022/02/01 00:45:13;;;;;;;2.30;0.60;;;;;;;;;;6302140;28;20552;-62
2022/02/01 00:48:15;;;;;;;1.58;0.50;;;;;;;;;;6298161;28;20450;-63
2022/02/01 00:51:16;;;;;;;2.08;0.70;;;;;;;;;;6302537;28;20412;-62
2022/02/01 00:54:19;;;;;;;5.68;0.70;;;;;;;;;;6301883;28;20110;-63
2022/02/01 00:57:21;;;;;;;1.13;0.60;;;;;;;;;;6303133;28;20056;-63
2022/02/01 01:00:22;;;;;;;4.45;0.70;;;;;;;;;;6304059;28;20162;-62
2022/02/01 01:03:24;;;;;;;1.50;0.75;;;;;;;;;;6298527;28;20564;-62
2022/02/01 01:06:28;;;;;;;2.88;0.80;;;;;;;;;;6302210;28;20040;-62
2022/02/01 01:09:31;;;;;;;1.90;0.70;;;;;;;;;;6298889;28;20139;-62
2022/02/01 01:12:37;;;;;;;2.50;0.90;;;;;;;;;;6298463;28;20063;-62
2022/02/01 01:15:43;;;;;;;0.77;0.50;;;;;;;;;;6302043;28;20053;-62
2022/02/01 01:45:46;;;;;;;2.53;1.08;;;;;;;;;;6303119;28;20048;-63
2022/02/01 01:55:27;;;;;;;2.40;1.30;;;;;;;;;;6306281;28;20428;-64
2022/02/01 01:58:30;;;;;;;3.00;1.65;;;;;;;;;;6299927;28;20108;-63
2022/02/01 02:01:32;;;;;;;4.25;1.42;;;;;;;;;;6308108;28;20173;-63
2022/02/01 02:04:34;;;;;;;5.22;1.70;;;;;;;;;;6300640;28;20181;-63
2022/02/01 02:07:35;;;;;;;6.60;2.10;;;;;;;;;;6301066;28;20053;-63
2022/02/01 02:10:46;;;;;;;3.03;1.38;;;;;;;;;;6308681;28;20053;-63
2022/02/01 02:17:10;;;;;;;4.22;1.67;;;;;;;;;;6306182;28;20053;-63
2022/02/01 02:20:12;;;;;;;3.75;1.77;;;;;;;;;;6302808;28;20127;-63
2022/02/01 02:23:15;;;;;;;3.65;1.58;;;;;;;;;;6304227;28;20125;-63
2022/02/01 02:26:18;;;;;;;3.75;1.50;;;;;;;;;;6302208;28;20135;-63
2022/02/01 02:29:20;;;;;;;2.70;1.02;;;;;;;;;;6303491;28;20487;-63
2022/02/01 02:32:22;;;;;;;3.00;1.20;;;;;;;;;;6302132;28;20064;-64
2022/02/01 02:35:29;;;;;;;3.33;1.55;;;;;;;;;;6307849;28;20075;-62
2022/02/01 02:38:37;;;;;;;4.20;1.40;;;;;;;;;;6305505;28;20527;-64
2022/02/01 02:41:49;;;;;;;5.68;1.73;;;;;;;;;;6307391;28;20090;-63
2022/02/01 02:45:09;;;;;;;4.97;1.65;;;;;;;;;;6312744;28;20178;-62
2022/02/01 02:48:12;;;;;;;2.92;1.23;;;;;;;;;;6307280;28;20135;-63
2022/02/01 02:51:13;;;;;;;3.13;1.30;;;;;;;;;;6307660;28;20496;-62
2022/02/01 02:54:18;;;;;;;2.55;1.27;;;;;;;;;;6303647;28;20131;-63
2022/02/01 02:57:20;;;;;;;2.97;1.20;;;;;;;;;;6304269;28;20139;-64
2022/02/01 03:00:21;;;;;;;3.10;1.17;;;;;;;;;;6303349;28;20182;-63
2022/02/01 03:03:24;;;;;;;3.30;1.30;;;;;;;;;;6304908;28;20196;-63
2022/02/01 03:06:25;;;;;;;2.47;1.15;;;;;;;;;;6304628;28;20175;-63
2022/02/01 03:09:30;;;;;;;1.77;0.80;;;;;;;;;;6306728;28;20463;-63
2022/02/01 03:12:55;;;;;;;;;;;;;;;;;;6306819;28;20052;-63
2022/02/01 03:16:02;;;;;;;1.85;0.98;;;;;;;;;;6303121;28;19921;-62
2022/02/01 03:22:24;;;;;;;2.17;0.70;;;;;;;;;;6304579;28;20127;-62
2022/02/01 03:25:28;;;;;;;2.05;0.95;;;;;;;;;;6307237;28;20082;-62
2022/02/01 03:28:30;;;;;;;2.95;0.98;;;;;;;;;;6306685;28;20397;-62
2022/02/01 03:31:32;;;;;;;2.17;1.10;;;;;;;;;;6312282;28;20055;-62
2022/02/01 03:34:34;;;;;;;3.08;1.20;;;;;;;;;;6313437;28;20174;-62
2022/02/01 03:37:35;;;;;;;3.72;1.30;;;;;;;;;;6311179;28;20121;-63
2022/02/01 03:40:38;;;;;;;2.97;1.45;;;;;;;;;;6311463;28;20129;-63
2022/02/01 03:43:40;;;;;;;2.22;1.05;;;;;;;;;;6312922;28;20049;-63
2022/02/01 03:46:47;;;;;;;2.65;1.00;;;;;;;;;;6307971;28;20130;-63
2022/02/01 03:49:48;;;;;;;3.10;1.45;;;;;;;;;;6310699;28;20063;-62
2022/02/01 03:52:50;;;;;;;4.43;1.00;;;;;;;;;;6304265;28;20141;-63
2022/02/01 03:55:53;;;;;;;2.78;0.82;;;;;;;;;;6304767;28;20131;-64
2022/02/01 03:58:54;;;;;;;3.58;0.93;;;;;;;;;;6312362;28;20105;-63
2022/02/01 04:01:58;;;;;;;2.00;0.70;;;;;;;;;;6307692;28;20217;-63
2022/02/01 04:04:59;;;;;;;2.23;1.23;;;;;;;;;;6309458;28;20104;-62
2022/02/01 04:08:02;;;;;;;2.85;1.20;;;;;;;;;;6308746;28;20522;-63
2022/02/01 04:11:05;;;;;;;2.53;1.00;;;;;;;;;;6309507;28;20089;-62
2022/02/01 04:14:07;;;;;;;2.40;0.85;;;;;;;;;;6306186;28;20132;-62
2022/02/01 04:17:10;;;;;;;2.17;0.93;;;;;;;;;;6313107;28;20193;-62
2022/02/01 04:20:12;;;;;;;2.45;1.10;;;;;;;;;;6309642;28;20052;-63
2022/02/01 04:23:13;;;;;;;1.35;0.70;;;;;;;;;;6311395;28;20495;-62
2022/02/01 04:26:16;;;;;;;2.75;1.00;;;;;;;;;;6314274;28;20580;-63
2022/02/01 04:29:18;;;;;;;3.10;1.20;;;;;;;;;;6311706;28;20081;-62
2022/02/01 04:32:20;;;;;;;5.78;1.40;;;;;;;;;;6306905;28;20056;-63
2022/02/01 04:35:23;;;;;;;3.70;1.48;;;;;;;;;;6306379;28;20133;-63
2022/02/01 04:38:25;;;;;;;3.38;1.23;;;;;;;;;;6306892;28;20071;-63
2022/02/01 04:41:29;;;;;;;2.58;1.52;;;;;;;;;;6305075;28;20131;-62
2022/02/01 04:44:30;;;;;;;1.35;0.80;;;;;;;;;;6306609;28;20401;-62
2022/02/01 04:47:34;;;;;;;2.33;1.20;;;;;;;;;;6305124;28;20048;-63
2022/02/01 04:50:38;;;;;;;2.53;0.90;;;;;;;;;;6303056;28;20048;-63
2022/02/01 04:53:39;;;;;;;2.72;0.90;;;;;;;;;;6307995;28;20041;-63
2022/02/01 04:56:42;;;;;;;1.52;0.70;;;;;;;;;;6301926;28;20060;-63
2022/02/01 04:59:44;;;;;;;1.30;0.50;;;;;;;;;;6306032;28;20091;-63
2022/02/01 05:02:45;;;;;;;4.70;0.52;;;;;;;;;;6307116;28;20516;-62
2022/02/01 05:05:47;;;;;;;0.47;0.30;;;;;;;;;;6301277;28;20131;-63
2022/02/01 05:08:48;;;;;;;0.77;0.43;;;;;;;;;;6302045;28;20597;-63
2022/02/01 05:11:53;;;;;;;2.35;0.30;;;;;;;;;;6299640;28;20117;-63
2022/02/01 05:14:55;;;;;;;3.63;0.28;;;;;;;;;;6303459;28;20067;-63
2022/02/01 05:17:57;;;;;;;0.70;0.32;;;;;;;;;;6302914;28;20127;-63
2022/02/01 05:21:04;;;;;;;1.05;0.20;;;;;;;;;;6304218;28;20051;-63
2022/02/01 05:24:09;;;;;;;1.02;0.40;;;;;;;;;;6304894;28;20504;-62
2022/02/01 05:27:13;;;;;;;0.55;0.20;;;;;;;;;;6305447;28;20048;-63
2022/02/01 05:30:15;;;;;;;0.17;0.10;;;;;;;;;;6299408;28;20456;-62
2022/02/01 05:33:16;;;;;;;0.30;0.10;;;;;;;;;;6301212;28;20181;-63
2022/02/01 05:36:18;;;;;;;0.40;0.10;;;;;;;;;;6303982;28;20115;-63
2022/02/01 05:39:22;;;;;;;1.42;0.10;;;;;;;;;;6304299;28;20080;-63
2022/02/01 05:42:37;;;;;;;0.63;0.22;;;;;;;;;;6306546;28;20561;-63
2022/02/01 05:45:42;;;;;;;0.45;0.20;;;;;;;;;;6304634;28;20607;-63
2022/02/01 05:48:44;;;;;;;3.75;0.40;;;;;;;;;;6303387;28;20128;-62
2022/02/01 05:51:49;;;;;;;0.45;0.15;;;;;;;;;;6298977;28;20127;-63
2022/02/01 05:54:51;;;;;;;0.68;0.20;;;;;;;;;;6298131;28;20283;-63
2022/02/01 05:57:54;;;;;;;1.80;0.20;;;;;;;;;;6300563;28;20116;-63
2022/02/01 06:00:55;;;;;;;0.47;0.17;;;;;;;;;;6296503;28;20527;-64
2022/02/01 06:03:57;;;;;;;0.55;0.20;;;;;;;;;;6305454;27;20073;-63
2022/02/01 06:06:59;;;;;;;2.75;0.55;;;;;;;;;;6297138;28;20086;-63
2022/02/01 06:10:00;;;;;;;1.33;0.40;;;;;;;;;;6300117;28;20536;-62
2022/02/01 06:13:03;;;;;;;0.95;0.30;;;;;;;;;;6298445;28;20052;-63
2022/02/01 06:16:06;;;;;;;3.40;0.25;;;;;;;;;;6301234;28;20135;-63
2022/02/01 06:19:07;;;;;;;2.03;0.20;;;;;;;;;;6304346;28;20189;-62
2022/02/01 06:22:09;;;;;;;0.63;0.30;;;;;;;;;;6298978;28;20040;-63
2022/02/01 06:25:11;;;;;;;0.60;0.30;;;;;;;;;;6300251;28;20188;-62
2022/02/01 06:28:14;;;;;;;3.20;0.20;;;;;;;;;;6301661;28;20494;-63
2022/02/01 06:31:16;;;;;;;0.82;0.20;;;;;;;;;;6297362;28;20433;-63
2022/02/01 06:34:17;;;;;;;3.53;0.40;;;;;;;;;;6299902;28;20614;-63
2022/02/01 06:37:19;;;;;;;1.58;0.50;;;;;;;;;;6302224;28;20072;-62
2022/02/01 06:40:20;;;;;;;1.10;0.30;;;;;;;;;;6303872;28;20048;-63
2022/02/01 06:43:27;;;;;;;3.22;0.30;;;;;;;;;;6302313;28;20084;-63
2022/02/01 06:46:28;;;;;;;2.13;1.27;;;;;;;;;;6301496;28;20115;-63
2022/02/01 06:49:30;;;;;;;1.48;0.57;;;;;;;;;;6300197;28;20109;-63
2022/02/01 06:52:32;;;;;;;5.63;0.70;;;;;;;;;;6308004;28;20043;-65
2022/02/01 06:55:43;;;;;;;2.20;0.57;;;;;;;;;;6300166;28;20055;-64
2022/02/01 06:58:46;;;;;;;0.70;0.40;;;;;;;;;;6301756;28;20053;-64
2022/02/01 07:01:48;;;;;;;1.55;0.50;;;;;;;;;;6301014;28;20055;-62
2022/02/01 07:04:49;;;;;;;5.18;1.15;;;;;;;;;;6306402;28;20133;-63
2022/02/01 07:07:51;;;;;;;2.97;0.88;;;;;;;;;;6308710;28;20135;-64
2022/02/01 07:10:52;;;;;;;4.72;0.50;;;;;;;;;;6315637;28;20129;-65
2022/02/01 07:13:55;;;;;;;1.30;0.55;;;;;;;;;;6308840;27;20116;-62
2022/02/01 07:16:57;;;;;;;2.53;0.70;;;;;;;;;;6308576;28;20086;-63
2022/02/01 07:19:59;;;;;;;2.65;0.43;;;;;;;;;;6310405;28;20163;-62
2022/02/01 07:23:00;;;;;;;5.72;0.50;;;;;;;;;;6309057;28;20140;-63
2022/02/01 07:26:03;;;;;;;1.65;0.52;;;;;;;;;;6310030;28;20051;-64
2022/02/01 07:29:06;;;;;;;5.28;0.60;;;;;;;;;;6308877;28;20076;-62
2022/02/01 07:32:09;;;;;;;1.55;0.43;;;;;;;;;;6307608;28;20123;-62
2022/02/01 07:35:11;;;;;;;12.82;1.15;;;;;;;;;;6306564;28;20511;-64
2022/02/01 07:38:16;;;;;;;3.13;0.52;;;;;;;;;;6305327;28;20041;-60
2022/02/01 07:41:17;;;;;;;6.47;0.55;;;;;;;;;;6311543;28;20055;-64
2022/02/01 07:44:20;;;;;;;7.70;0.57;;;;;;;;;;6312952;28;20044;-62
2022/02/01 07:47:22;;;;;;;8.13;0.57;;;;;;;;;;6310983;28;20063;-65
2022/02/01 07:50:24;;;;;;;3.58;0.47;;;;;;;;;;6306359;28;20045;-64
2022/02/01 07:53:25;;;;;;;1.10;0.30;;;;;;;;;;6308458;28;20072;-64
2022/02/01 07:56:27;;;;;;;3.05;0.47;;;;;;;;;;6305598;28;20469;-64
2022/02/01 07:59:30;;;;;;;3.58;0.43;;;;;;;;;;6306200;28;20072;-64
2022/02/01 08:02:31;;;;;;;2.45;0.50;;;;;;;;;;6306273;28;20071;-64
2022/02/01 08:05:33;;;;;;;3.42;0.52;;;;;;;;;;6306477;28;20102;-65
2022/02/01 08:08:35;;;;;;;1.27;0.60;;;;;;;;;;6303320;28;20211;-65
2022/02/01 08:11:36;;;;;;;2.40;0.50;;;;;;;;;;6307036;28;20078;-65
2022/02/01 08:18:19;;;;;;;3.80;1.15;;;;;;;;;;6303261;28;20060;-64
2022/02/01 08:21:25;;;;;;;3.80;0.75;;;;;;;;;;6306561;28;20052;-63
2022/02/01 08:24:27;;;;;;;1.13;0.60;;;;;;;;;;6307093;28;20408;-63
2022/02/01 08:27:29;;;;;;;6.93;1.77;;;;;;;;;;6305900;28;20072;-64
2022/02/01 08:30:33;;;;;;;6.20;0.90;;;;;;;;;;6305554;28;20186;-63
2022/02/01 08:33:34;;;;;;;3.67;0.47;;;;;;;;;;6305241;28;20128;-63
2022/02/01 08:36:36;;;;;;;3.70;0.40;;;;;;;;;;6303373;28;20186;-63
2022/02/01 08:39:37;;;;;;;4.32;0.88;;;;;;;;;;6303352;28;20147;-64
2022/02/01 08:42:40;;;;;;;2.08;0.30;;;;;;;;;;6308028;28;20375;-64
2022/02/01 08:45:43;;;;;;;4.57;0.65;;;;;;;;;;6306767;28;20089;-63
2022/02/01 08:48:45;;;;;;;3.28;0.43;;;;;;;;;;6306582;28;20526;-64
2022/02/01 08:51:56;;;;;;;7.93;0.60;;;;;;;;;;6308062;28;20440;-64
2022/02/01 08:55:01;;;;;;;3.90;0.30;;;;;;;;;;6319829;28;20048;-63
2022/02/01 08:58:03;;;;;;;5.88;0.50;;;;;;;;;;6307006;28;20048;-63
2022/02/01 09:01:06;;;;;;;4.40;0.43;;;;;;;;;;6303301;28;20120;-64
2022/02/01 09:04:08;;;;;;;5.95;0.43;;;;;;;;;;6307815;28;20404;-63
2022/02/01 09:07:10;;;;;;;3.05;0.38;;;;;;;;;;6307340;28;20118;-64
2022/02/01 09:10:11;;;;;;;0.35;0.35;;;;;;;;;;6308992;28;20137;-63
2022/02/01 09:13:13;;;;;;;3.50;0.47;;;;;;;;;;6303755;28;20048;-64
2022/02/01 09:16:16;;;;;;;4.78;0.63;;;;;;;;;;6301189;28;20177;-64
2022/02/01 09:19:18;;;;;;;4.25;0.40;;;;;;;;;;6305764;28;20076;-63
2022/02/01 09:22:20;;;;;;;4.18;0.88;;;;;;;;;;6300602;28;20428;-64
2022/02/01 09:25:22;;;;;;;1.80;0.60;;;;;;;;;;6309499;28;20135;-64
2022/02/01 09:28:23;;;;;;;5.07;1.05;;;;;;;;;;6305975;28;20504;-64
2022/02/01 09:31:26;;;;;;;3.63;0.60;;;;;;;;;;6300783;28;20071;-63
2022/02/01 09:34:29;;;;;;;9.63;1.10;;;;;;;;;;6304234;28;20040;-65
2022/02/01 09:37:30;;;;;;;12.63;0.88;;;;;;;;;;6305901;28;20519;-63
2022/02/01 09:40:32;;;;;;;4.78;0.70;;;;;;;;;;6301958;28;20136;-64
2022/02/01 09:43:34;;;;;;;3.67;0.70;;;;;;;;;;6304459;28;20209;-66
2022/02/01 09:46:37;;;;;;;4.10;0.63;;;;;;;;;;6305729;28;20048;-66
2022/02/01 09:49:39;;;;;;;8.70;1.73;;;;;;;;;;6307302;28;20500;-66
2022/02/01 09:52:40;;;;;;;4.68;0.80;;;;;;;;;;6295345;28;20040;-66
2022/02/01 09:55:42;;;;;;;5.88;1.00;;;;;;;;;;6311173;28;20048;-63
2022/02/01 09:58:43;;;;;;;8.48;0.80;;;;;;;;;;6305710;28;20504;-66
2022/02/01 10:01:53;;;;;;;10.57;1.20;;;;;;;;;;6313816;28;20063;-66
2022/02/01 10:05:02;;;;;;;0.85;0.30;;;;;;;;;;6300611;28;20114;-67
2022/02/01 10:08:04;;;;;;;1.92;0.30;;;;;;;;;;6300465;28;20053;-66
2022/02/01 10:11:11;;;;;;;8.30;1.23;;;;;;;;;;6300775;28;20131;-65
2022/02/01 10:14:22;;;;;;;5.75;0.85;;;;;;;;;;6298961;28;20524;-65
2022/02/01 10:17:32;;;;;;;4.55;0.57;;;;;;;;;;6298987;28;20048;-64
2022/02/01 10:20:42;;;;;;;4.63;0.55;;;;;;;;;;6303190;28;20393;-62
2022/02/01 10:23:45;;;;;;;4.40;0.60;;;;;;;;;;6300559;28;20415;-63
2022/02/01 10:26:51;;;;;;;12.88;0.80;;;;;;;;;;6315090;28;20097;-65
2022/02/01 10:30:01;;;;;;;5.97;0.70;;;;;;;;;;6321389;28;20048;-66
2022/02/01 10:33:21;;;;;;;1.60;0.45;;;;;;;;;;6314820;28;20139;-64
2022/02/01 10:36:22;;;;;;;5.10;0.80;;;;;;;;;;6305279;28;20101;-65
2022/02/01 10:39:25;;;;;;;2.55;0.60;;;;;;;;;;6298312;28;20059;-63
2022/02/01 10:42:28;;;;;;;9.20;1.00;;;;;;;;;;6303981;28;20075;-62
2022/02/01 10:45:29;;;;;;;1.67;0.40;;;;;;;;;;6304249;28;20124;-62
2022/02/01 10:48:33;;;;;;;8.73;1.08;;;;;;;;;;6302775;28;20064;-62
2022/02/01 10:51:34;;;;;;;7.57;0.93;;;;;;;;;;6308332;28;20139;-63
2022/02/01 10:54:38;;;;;;;16.73;1.98;;;;;;;;;;6298885;28;20106;-62
2022/02/01 10:57:41;;;;;;;6.35;0.80;;;;;;;;;;6308453;28;20194;-63
2022/02/01 11:00:43;;;;;;;5.20;0.90;;;;;;;;;;6302388;28;20131;-64
2022/02/01 11:03:47;;;;;;;7.93;0.50;;;;;;;;;;6305279;28;20492;-63
2022/02/01 11:06:50;;;;;;;2.20;0.40;;;;;;;;;;6302638;28;20119;-63
2022/02/01 11:09:52;;;;;;;0.88;0.30;;;;;;;;;;6308904;28;20324;-65
2022/02/01 11:13:04;;;;;;;4.60;0.63;;;;;;;;;;6300956;28;20135;-63
2022/02/01 11:16:08;;;;;;;3.90;0.40;;;;;;;;;;6304876;28;20076;-63
2022/02/01 11:19:11;;;;;;;3.17;0.40;;;;;;;;;;6300972;28;20059;-63
2022/02/01 11:22:19;;;;;;;2.10;0.73;;;;;;;;;;6299133;28;20449;-65
2022/02/01 11:25:24;;;;;;;5.45;0.55;;;;;;;;;;6305133;28;20048;-62
2022/02/01 11:28:40;;;;;;;1.58;0.40;;;;;;;;;;6306424;28;20044;-63
2022/02/01 11:31:43;;;;;;;0.95;0.40;;;;;;;;;;6311588;28;20517;-65
2022/02/01 11:34:46;;;;;;;1.27;0.63;;;;;;;;;;6303497;28;20140;-65
2022/02/01 11:37:50;;;;;;;3.53;1.48;;;;;;;;;;6304744;28;20525;-65
2022/02/01 11:41:01;;;;;;;2.10;0.50;;;;;;;;;;6307079;28;20102;-64
2022/02/01 11:44:10;;;;;;;4.57;0.80;;;;;;;;;;6310342;28;20467;-62
2022/02/01 11:47:13;;;;;;;1.83;0.40;;;;;;;;;;6304355;28;20467;-63
2022/02/01 11:50:18;;;;;;;1.15;0.50;;;;;;;;;;6303057;28;20089;-64
2022/02/01 11:53:23;;;;;;;1.70;0.28;;;;;;;;;;6306415;28;20044;-63
2022/02/01 11:56:32;;;;;;;1.40;0.60;;;;;;;;;;6303416;28;20134;-62
2022/02/01 11:59:33;;;;;;;2.92;1.10;;;;;;;;;;6305499;28;20040;-62
2022/02/01 12:02:38;;;;;;;4.72;0.85;;;;;;;;;;6311505;28;20055;-62
2022/02/01 12:05:42;;;;;;;1.92;0.50;;;;;;;;;;6312283;27;20079;-62
2022/02/01 12:08:44;;;;;;;2.88;0.50;;;;;;;;;;6312183;28;20484;-63
2022/02/01 12:11:47;;;;;;;13.15;1.58;;;;;;;;;;6309569;28;20052;-63
2022/02/01 12:14:55;;;;;;;6.47;0.90;;;;;;;;;;6309918;28;20138;-63
2022/02/01 12:18:03;;;;;;;1.70;0.40;;;;;;;;;;6311888;28;20185;-64
2022/02/01 12:21:18;;;;;;;0.85;0.47;;;;;;;;;;6311866;28;20101;-63
2022/02/01 12:24:25;;;;;;;1.98;0.50;;;;;;;;;;6310636;28;20075;-63
2022/02/01 12:27:34;;;;;;;16.30;1.90;;;;;;;;;;6311293;28;20463;-64
2022/02/01 12:30:35;;;;;;;46.15;4.03;;;;;;;;;;6310146;28;20090;-63
2022/02/01 12:33:40;;;;;;;8.15;0.77;;;;;;;;;;6305438;28;20135;-64
2022/02/01 12:36:44;;;;;;;3.85;0.50;;;;;;;;;;6306496;28;20045;-64
2022/02/01 12:39:48;;;;;;;1.85;0.60;;;;;;;;;;6308910;28;20048;-63
2022/02/01 12:42:52;;;;;;;2.78;0.70;;;;;;;;;;6307643;28;20087;-64
2022/02/01 12:46:05;;;;;;;2.40;1.60;;;;;;;;;;6308366;28;20087;-63
2022/02/01 12:49:06;;;;;;;4.97;0.70;;;;;;;;;;6307939;28;20098;-62
2022/02/01 12:52:18;;;;;;;13.50;1.85;;;;;;;;;;6307442;28;20139;-65
2022/02/01 12:55:19;;;;;;;7.22;0.90;;;;;;;;;;6307786;28;20135;-64
2022/02/01 12:58:21;;;;;;;2.05;0.70;;;;;;;;;;6311933;28;21535;-65
2022/02/01 13:01:30;;;;;;;11.95;1.00;;;;;;;;;;6308771;28;20068;-63
2022/02/01 13:04:32;;;;;;;2.90;0.40;;;;;;;;;;6310451;28;20072;-63
2022/02/01 13:07:51;;;;;;;2.20;0.50;;;;;;;;;;6313241;28;20043;-63
2022/02/01 13:17:52;;;;;;;5.80;0.55;;;;;;;;;;6303272;28;20065;-64
2022/02/01 13:20:57;;;;;;;4.03;0.40;;;;;;;;;;6308345;28;20130;-63
2022/02/01 13:24:01;;;;;;;2.70;0.47;;;;;;;;;;6309526;28;20122;-62
2022/02/01 13:27:02;;;;;;;;;;;;;;;;;;6306804;28;20174;-62
2022/02/01 13:30:06;;;;;;;1.08;0.40;;;;;;;;;;6305376;28;20018;-62
2022/02/01 13:33:12;;;;;;;2.60;0.30;;;;;;;;;;6303357;28;20202;-61
2022/02/01 13:36:14;;;;;;;0.90;0.30;;;;;;;;;;6309819;28;20069;-62
2022/02/01 13:39:24;;;;;;;3.33;0.40;;;;;;;;;;6305177;28;20044;-62
2022/02/01 13:42:31;;;;;;;13.77;1.17;;;;;;;;;;6302142;28;20495;-64
2022/02/01 13:45:34;;;;;;;1.00;0.47;;;;;;;;;;6303355;28;20109;-66
2022/02/01 13:48:35;;;;;;;2.55;0.52;;;;;;;;;;6305521;28;20052;-67
2022/02/01 13:51:45;;;;;;;10.45;1.90;;;;;;;;;;6305399;28;20130;-66
2022/02/01 13:54:47;;;;;;;7.53;1.85;;;;;;;;;;6299636;28;20124;-66
2022/02/01 13:57:49;;;;;;;3.38;0.38;;;;;;;;;;6303715;27;20051;-66
2022/02/01 14:00:54;;;;;;;3.90;0.50;;;;;;;;;;6298683;28;20534;-65
2022/02/01 14:04:05;;;;;;;0.40;0.30;;;;;;;;;;6306903;28;20317;-67
2022/02/01 14:07:14;;;;;;;1.05;0.30;;;;;;;;;;6301380;28;20163;-66
2022/02/01 14:10:28;;;;;;;4.50;0.75;;;;;;;;;;6299933;28;20076;-66
2022/02/01 14:26:55;;;;;;;2.17;0.50;;;;;;;;;;6302198;28;20052;-64
2022/02/01 14:36:34;;;;;;;3.55;0.70;;;;;;;;;;6306078;28;20048;-62
2022/02/01 14:46:21;;;;;;;2.83;0.60;;;;;;;;;;6289217;28;20458;-66
2022/02/01 14:49:24;;;;;;;1.60;0.40;;;;;;;;;;6305401;28;20183;-63
2022/02/01 14:52:26;;;;;;;3.50;0.85;;;;;;;;;;6298697;28;20052;-64
2022/02/01 14:55:34;;;;;;;2.65;0.60;;;;;;;;;;6298922;28;20075;-64
2022/02/01 15:05:42;;;;;;;3.53;1.02;;;;;;;;;;6299927;28;20105;-64
2022/02/01 15:12:23;;;;;;;3.28;0.70;;;;;;;;;;6300766;28;20052;-64
2022/02/01 15:15:26;;;;;;;3.38;0.52;;;;;;;;;;6301593;28;20135;-64
2022/02/01 15:18:28;;;;;;;5.03;0.52;;;;;;;;;;6302141;28;20040;-64
2022/02/01 15:21:29;;;;;;;2.85;0.40;;;;;;;;;;6299073;28;20095;-62
2022/02/01 15:24:31;;;;;;;7.30;0.63;;;;;;;;;;6311539;28;20147;-62
2022/02/01 15:27:32;;;;;;;3.72;0.60;;;;;;;;;;6303430;28;20586;-62
2022/02/01 15:30:36;;;;;;;5.53;0.75;;;;;;;;;;6303572;28;20151;-64
2022/02/01 15:33:38;;;;;;;4.00;0.80;;;;;;;;;;6300128;28;20153;-63
2022/02/01 15:36:39;;;;;;;9.82;1.23;;;;;;;;;;6306603;28;20175;-62
2022/02/01 15:56:52;;;;;;;4.38;1.45;;;;;;;;;;6303034;28;20041;-65
2022/02/01 15:59:55;;;;;;;6.70;1.05;;;;;;;;;;6301905;28;20052;-63
2022/02/01 16:03:01;;;;;;;8.80;1.35;;;;;;;;;;6305920;28;20048;-65
2022/02/01 16:06:02;;;;;;;4.50;1.10;;;;;;;;;;6306669;28;20144;-64
2022/02/01 16:09:12;;;;;;;3.22;1.23;;;;;;;;;;6310873;28;20532;-64
2022/02/01 16:12:19;;;;;;;3.35;1.77;;;;;;;;;;6305212;28;20122;-63
2022/02/01 16:15:21;;;;;;;2.65;1.15;;;;;;;;;;6307138;28;20055;-65
2022/02/01 16:18:24;;;;;;;4.05;1.10;;;;;;;;;;6307244;28;20625;-63
2022/02/01 16:21:25;;;;;;;3.35;1.17;;;;;;;;;;6310347;28;20052;-64
2022/02/01 16:24:27;;;;;;;4.03;1.10;;;;;;;;;;6304713;28;20142;-64
2022/02/01 16:27:30;;;;;;;3.05;1.38;;;;;;;;;;6310735;28;20135;-63
2022/02/01 16:30:36;;;;;;;2.65;1.20;;;;;;;;;;6309306;28;20548;-64
2022/02/01 16:33:39;;;;;;;3.38;1.02;;;;;;;;;;6304948;28;20050;-62
2022/02/01 16:36:41;;;;;;;2.97;1.40;;;;;;;;;;6308536;28;20087;-65
2022/02/01 16:39:45;;;;;;;3.28;1.50;;;;;;;;;;6304723;28;20173;-62
2022/02/01 16:42:47;;;;;;;;;;;;;;;;;;6312397;28;20077;-63
2022/02/01 16:45:48;;;;;;;5.82;1.63;;;;;;;;;;6310304;28;19966;-64
2022/02/01 16:48:52;;;;;;;8.65;1.80;;;;;;;;;;6306832;28;20083;-61
2022/02/01 16:51:55;;;;;;;5.28;1.95;;;;;;;;;;6303371;28;20124;-64
2022/02/01 16:55:05;;;;;;;2.97;1.73;;;;;;;;;;6306475;28;20052;-63
2022/02/01 16:58:21;;;;;;;4.80;2.72;;;;;;;;;;6300820;28;20053;-64
2022/02/01 17:01:23;;;;;;;3.40;1.67;;;;;;;;;;6305640;28;20068;-63
2022/02/01 17:04:26;;;;;;;3.65;1.70;;;;;;;;;;6308178;28;20513;-64
2022/02/01 17:07:28;;;;;;;6.72;3.17;;;;;;;;;;6307449;28;20085;-65
2022/02/01 17:10:29;;;;;;;6.15;1.95;;;;;;;;;;6310541;28;20040;-64
2022/02/01 17:13:48;;;;;;;3.83;1.95;;;;;;;;;;6311171;28;20571;-64
2022/02/01 17:17:06;;;;;;;5.22;2.10;;;;;;;;;;6306959;28;20053;-64
2022/02/01 17:23:29;;;;;;;4.55;1.92;;;;;;;;;;6305593;28;20148;-63
2022/02/01 17:26:31;;;;;;;3.50;1.90;;;;;;;;;;6304500;28;20402;-64
2022/02/01 17:29:33;;;;;;;5.60;2.42;;;;;;;;;;6307817;28;20044;-63
2022/02/01 17:32:34;;;;;;;3.35;1.73;;;;;;;;;;6303210;28;20070;-63
2022/02/01 17:35:37;;;;;;;3.47;1.60;;;;;;;;;;6302193;28;20098;-63
2022/02/01 17:38:39;;;;;;;3.83;1.88;;;;;;;;;;6302129;28;20056;-64
2022/02/01 17:41:41;;;;;;;5.05;1.83;;;;;;;;;;6302745;28;20111;-64
2022/02/01 17:44:44;;;;;;;2.75;1.50;;;;;;;;;;6299761;28;20189;-64
2022/02/01 17:47:49;;;;;;;7.65;1.80;;;;;;;;;;6303468;28;20072;-63
2022/02/01 17:51:04;;;;;;;2.75;1.85;;;;;;;;;;6300094;28;20463;-64
2022/02/01 17:54:14;;;;;;;3.65;1.50;;;;;;;;;;6306769;28;20064;-64
2022/02/01 17:57:16;;;;;;;3.53;1.50;;;;;;;;;;6308754;28;20051;-64
2022/02/01 18:00:18;;;;;;;2.75;1.48;;;;;;;;;;6307933;28;20508;-64
2022/02/01 18:03:21;;;;;;;3.28;1.42;;;;;;;;;;6307391;28;20134;-64
2022/02/01 18:06:24;;;;;;;6.40;1.65;;;;;;;;;;6302722;28;20059;-64
2022/02/01 18:09:27;;;;;;;2.60;1.50;;;;;;;;;;6309811;28;20424;-64
2022/02/01 18:12:36;;;;;;;3.22;1.80;;;;;;;;;;6301463;28;20047;-64
2022/02/01 18:15:40;;;;;;;3.50;1.80;;;;;;;;;;6301812;28;20515;-65
2022/02/01 18:18:42;;;;;;;4.15;1.77;;;;;;;;;;6301484;28;20400;-64
2022/02/01 18:21:47;;;;;;;2.80;1.80;;;;;;;;;;6308944;28;20048;-65
2022/02/01 18:24:48;;;;;;;4.65;2.13;;;;;;;;;;6305024;28;20045;-65
2022/02/01 18:27:51;;;;;;;3.38;1.98;;;;;;;;;;6300524;28;20060;-64
2022/02/01 18:30:56;;;;;;;6.33;2.33;;;;;;;;;;6305396;28;20563;-64
2022/02/01 18:33:59;;;;;;;4.88;2.60;;;;;;;;;;6302479;28;20480;-65
2022/02/01 18:37:04;;;;;;;6.47;2.80;;;;;;;;;;6301442;28;20049;-64
2022/02/01 18:40:07;;;;;;;3.50;2.05;;;;;;;;;;6300882;28;20174;-64
2022/02/01 18:43:13;;;;;;;4.55;1.90;;;;;;;;;;6304128;28;20100;-63
2022/02/01 18:46:18;;;;;;;4.25;1.85;;;;;;;;;;6298735;28;20467;-64
2022/02/01 18:49:27;;;;;;;4.63;2.22;;;;;;;;;;6302067;28;20063;-64
2022/02/01 18:53:02;;;;;;;4.57;1.90;;;;;;;;;;6301479;28;20052;-64
2022/02/01 18:59:27;;;;;;;3.10;1.80;;;;;;;;;;6302740;28;20499;-63
2022/02/01 19:06:00;;;;;;;4.13;2.05;;;;;;;;;;6304709;28;20412;-64
2022/02/01 19:12:23;;;;;;;3.85;2.53;;;;;;;;;;6303624;28;20107;-65
2022/02/01 19:15:25;;;;;;;5.35;2.08;;;;;;;;;;6310803;28;20178;-64
2022/02/01 19:18:28;;;;;;;3.85;1.92;;;;;;;;;;6308338;28;20040;-63
2022/02/01 19:21:29;;;;;;;5.63;2.70;;;;;;;;;;6308775;28;20171;-63
2022/02/01 19:24:35;;;;;;;4.00;2.42;;;;;;;;;;6308908;28;20551;-63
2022/02/01 19:27:37;;;;;;;3.83;2.20;;;;;;;;;;6308106;28;20048;-64
2022/02/01 19:30:40;;;;;;;6.50;2.20;;;;;;;;;;6307764;28;20058;-64
2022/02/01 19:33:42;;;;;;;6.10;2.65;;;;;;;;;;6307652;27;20554;-64
2022/02/01 19:36:44;;;;;;;3.72;2.60;;;;;;;;;;6304200;28;20128;-64
2022/02/01 19:39:49;;;;;;;4.93;2.03;;;;;;;;;;6303873;28;20044;-64
2022/02/01 19:42:57;;;;;;;4.95;2.28;;;;;;;;;;6304676;28;20045;-63
2022/02/01 19:45:59;;;;;;;5.25;2.13;;;;;;;;;;6306327;28;20081;-64
2022/02/01 19:49:02;;;;;;;3.65;2.17;;;;;;;;;;6304903;28;20071;-61
2022/02/01 19:52:04;;;;;;;4.35;2.13;;;;;;;;;;6312013;28;20053;-62
2022/02/01 19:55:09;;;;;;;5.60;2.25;;;;;;;;;;6305015;28;20607;-65
2022/02/01 19:58:12;;;;;;;4.13;2.25;;;;;;;;;;6314720;28;20068;-62
2022/02/01 20:01:14;;;;;;;4.40;2.58;;;;;;;;;;6311026;28;20518;-64
2022/02/01 20:04:18;;;;;;;5.10;2.72;;;;;;;;;;6311781;28;20116;-62
2022/02/01 20:07:27;;;;;;;3.40;2.30;;;;;;;;;;6311828;28;20106;-62
2022/02/01 20:10:30;;;;;;;4.00;1.90;;;;;;;;;;6307134;28;20052;-63
2022/02/01 20:13:32;;;;;;;4.82;2.10;;;;;;;;;;6311378;28;20125;-65
2022/02/01 20:16:33;;;;;;;3.13;2.10;;;;;;;;;;6312149;28;20137;-63
2022/02/01 20:19:36;;;;;;;4.78;1.83;;;;;;;;;;6311078;28;20040;-63
2022/02/01 20:22:38;;;;;;;4.00;2.20;;;;;;;;;;6312318;28;20044;-63
2022/02/01 20:25:42;;;;;;;3.13;1.75;;;;;;;;;;6304235;28;20057;-62
2022/02/01 20:28:43;;;;;;;7.93;2.10;;;;;;;;;;6303495;28;20191;-63
2022/02/01 20:31:45;;;;;;;3.45;2.53;;;;;;;;;;6311713;28;20226;-63
2022/02/01 20:34:46;;;;;;;4.35;2.55;;;;;;;;;;6304209;28;20121;-63
2022/02/01 20:37:48;;;;;;;3.40;2.15;;;;;;;;;;6304133;28;20463;-63